Airfield :
LOGIN :

Register | Disclaimer

   EN    FR    IT 

 










Legend :    VFR   Marginal VFR   IFR   Intensive IFR   Very Intensive IFR
Visi :
Ceiling :
>= 8 km
>= 3000ft
5 to 8 km
1000 to 3000 ft
1500m to 5 km
500 to 1000 ft
800 to 1500m
200 to 500 ft
< 800m
< 200 ft
Symbols :   Thunderstorms  Fog  Heavy snow  Heavy precipitations  Wind > 20 kt
SIGMETs :     Misc.  Thunderstorms  Icing  Turbulence  Mountain Waves  Volcanic Ashes






- Airport Elevation : 1202 ft
- IATA code : IGS


ETSI - Ingolstadt

CURRENT METAR :
  • 251209Z 30002KT 2200 SN BKN010 OVC025 M01/M03 Q1002 YLO BLU TEMPO YLO

EXPIRED METARs :
  • 251201Z 32001KT 4000 -SN SCT012 BKN025 M01/M04 Q1002 GRN BLU TEMPO YLO
  • 251120Z VRB02KT 9999 -SN SCT015 BKN023 M01/M04 Q1002 WHT BLU TEMPO YLO
  • 251020Z VRB02KT 9000 -SN FEW015 BKN025 M02/M04 Q1002 BLU BLU TEMPO YLO
  • 250920Z 10003KT 9000 -SN OVC030 M03/M04 Q1001 RESN BLU BLU TEMPO YLO

TAF COR TAF ETSI
Valid from the 25 at 12:00 until the 25 at 21:00 UTC


251123Z 2512/2521 VRB02KT 8000 -SN SCT015 BKN025
TEMPO 2512/2513 VRB03KT 4000 -SN OVC010
TEMPO 2513/2516 VRB03KT 2000 SN OVC009
TEMPO 2516/2521 VRB03KT 4000 -SN OVC010



MET'MAP, your aeronautical weather chart ! - Copyright ORBIFLY December 2007 - Disclaimer

ORBIFLY MET'MAP TEAM :

Programming & Development : Alexandra Zaïnal
Concept & original design : Baudouin d'Aumeries
Assistance for programming : Marc-Olivier Méhu
Technical & hardware support : Manuel Goepfert

Contact : metmap@orbifly.com




SOURCES & CREDITS :

   NOAA